sensor_id;sensor_type;location;lat;lon;timestamp;pressure;altitude;pressure_sealevel;temperature;humidity
17785;BME280;9016;53.582;10.062;2023-01-29T00:01:58;102613.50;;;5.41;86.77
17785;BME280;9016;53.582;10.062;2023-01-29T00:04:26;102609.13;;;5.40;86.68
17785;BME280;9016;53.582;10.062;2023-01-29T00:06:56;102612.63;;;5.42;87.38
17785;BME280;9016;53.582;10.062;2023-01-29T00:09:24;102601.16;;;5.41;87.38
17785;BME280;9016;53.582;10.062;2023-01-29T00:11:52;102599.38;;;5.45;87.59
17785;BME280;9016;53.582;10.062;2023-01-29T00:14:20;102595.84;;;5.46;87.62
17785;BME280;9016;53.582;10.062;2023-01-29T00:16:48;102594.97;;;5.45;88.05
17785;BME280;9016;53.582;10.062;2023-01-29T00:19:17;102593.28;;;5.38;88.72
17785;BME280;9016;53.582;10.062;2023-01-29T00:21:45;102587.84;;;5.50;88.22
17785;BME280;9016;53.582;10.062;2023-01-29T00:24:14;102576.41;;;5.50;87.72
17785;BME280;9016;53.582;10.062;2023-01-29T00:26:42;102580.81;;;5.51;86.52
17785;BME280;9016;53.582;10.062;2023-01-29T00:29:10;102572.97;;;5.42;87.02
17785;BME280;9016;53.582;10.062;2023-01-29T00:31:38;102563.47;;;5.23;88.98
17785;BME280;9016;53.582;10.062;2023-01-29T00:34:06;102559.00;;;5.29;89.45
17785;BME280;9016;53.582;10.062;2023-01-29T00:36:34;102554.53;;;5.36;89.56
17785;BME280;9016;53.582;10.062;2023-01-29T00:39:02;102543.06;;;5.35;88.86
17785;BME280;9016;53.582;10.062;2023-01-29T00:41:37;102548.44;;;5.29;89.68
17785;BME280;9016;53.582;10.062;2023-01-29T00:44:23;102551.94;;;5.31;89.59
17785;BME280;9016;53.582;10.062;2023-01-29T00:47:08;102556.22;;;5.41;89.77
17785;BME280;9016;53.582;10.062;2023-01-29T00:49:56;102564.13;;;5.47;89.70
17785;BME280;9016;53.582;10.062;2023-01-29T00:52:24;102552.53;;;5.59;89.27
17785;BME280;9016;53.582;10.062;2023-01-29T00:54:52;102555.13;;;5.63;88.64
17785;BME280;9016;53.582;10.062;2023-01-29T00:57:23;102556.97;;;5.54;88.93
17785;BME280;9016;53.582;10.062;2023-01-29T00:59:52;102567.53;;;5.57;89.48
17785;BME280;9016;53.582;10.062;2023-01-29T01:02:20;102555.34;;;5.44;89.72
17785;BME280;9016;53.582;10.062;2023-01-29T01:05:07;102565.81;;;5.50;90.14
17785;BME280;9016;53.582;10.062;2023-01-29T01:07:39;102562.31;;;5.51;90.32
17785;BME280;9016;53.582;10.062;2023-01-29T01:10:12;102576.31;;;5.57;90.12
17785;BME280;9016;53.582;10.062;2023-01-29T01:12:53;102570.97;;;5.65;89.44
17785;BME280;9016;53.582;10.062;2023-01-29T01:15:22;102562.06;;;5.72;89.42
17785;BME280;9016;53.582;10.062;2023-01-29T01:17:52;102567.34;;;5.75;89.13
17785;BME280;9016;53.582;10.062;2023-01-29T01:20:20;102567.25;;;5.79;88.83
17785;BME280;9016;53.582;10.062;2023-01-29T01:22:49;102567.25;;;5.82;89.11
17785;BME280;9016;53.582;10.062;2023-01-29T01:25:17;102568.06;;;5.89;89.05
17785;BME280;9016;53.582;10.062;2023-01-29T01:27:45;102572.56;;;5.78;88.45
17785;BME280;9016;53.582;10.062;2023-01-29T01:30:15;102564.56;;;5.87;88.69
17785;BME280;9016;53.582;10.062;2023-01-29T01:32:43;102573.44;;;5.83;88.73
17785;BME280;9016;53.582;10.062;2023-01-29T01:35:11;102582.22;;;5.88;88.98
17785;BME280;9016;53.582;10.062;2023-01-29T01:37:40;102580.44;;;5.87;88.65
17785;BME280;9016;53.582;10.062;2023-01-29T01:40:13;102577.88;;;5.76;88.28
17785;BME280;9016;53.582;10.062;2023-01-29T01:42:46;102575.16;;;5.87;89.30
17785;BME280;9016;53.582;10.062;2023-01-29T01:45:22;102572.56;;;5.81;89.02
17785;BME280;9016;53.582;10.062;2023-01-29T01:47:54;102573.34;;;5.90;89.04
17785;BME280;9016;53.582;10.062;2023-01-29T01:50:27;102570.69;;;5.92;88.42
17785;BME280;9016;53.582;10.062;2023-01-29T01:52:58;102562.75;;;5.92;88.39
17785;BME280;9016;53.582;10.062;2023-01-29T01:55:29;102571.56;;;5.91;87.41
17785;BME280;9016;53.582;10.062;2023-01-29T01:58:02;102562.84;;;5.86;87.89
17785;BME280;9016;53.582;10.062;2023-01-29T02:00:33;102561.91;;;5.87;88.70
17785;BME280;9016;53.582;10.062;2023-01-29T02:03:02;102559.31;;;5.84;88.83
17785;BME280;9016;53.582;10.062;2023-01-29T02:05:48;102556.53;;;5.94;89.03
17785;BME280;9016;53.582;10.062;2023-01-29T02:08:41;102562.81;;;5.87;88.80
17785;BME280;9016;53.582;10.062;2023-01-29T02:11:29;102548.78;;;5.78;89.92
17785;BME280;9016;53.582;10.062;2023-01-29T02:13:58;102548.78;;;5.78;88.90
17785;BME280;9016;53.582;10.062;2023-01-29T02:16:27;102539.94;;;5.77;89.30
17785;BME280;9016;53.582;10.062;2023-01-29T02:18:56;102550.47;;;5.86;89.69
17785;BME280;9016;53.582;10.062;2023-01-29T02:21:47;102544.34;;;5.84;89.47
17785;BME280;9016;53.582;10.062;2023-01-29T02:24:39;102544.34;;;5.84;89.60
17785;BME280;9016;53.582;10.062;2023-01-29T02:27:17;102544.25;;;5.92;90.39
17785;BME280;9016;53.582;10.062;2023-01-29T02:29:55;102542.41;;;5.97;89.29
17785;BME280;9016;53.582;10.062;2023-01-29T02:32:30;102536.34;;;5.87;89.54
17785;BME280;9016;53.582;10.062;2023-01-29T02:35:10;102524.78;;;5.94;89.61
17785;BME280;9016;53.582;10.062;2023-01-29T02:38:01;102523.06;;;5.90;89.74
17785;BME280;9016;53.582;10.062;2023-01-29T02:40:39;102539.84;;;5.91;89.59
17785;BME280;9016;53.582;10.062;2023-01-29T02:43:19;102527.56;;;5.84;89.73
17785;BME280;9016;53.582;10.062;2023-01-29T02:45:57;102529.31;;;5.82;89.25
17785;BME280;9016;53.582;10.062;2023-01-29T02:48:36;102531.09;;;5.86;89.24
17785;BME280;9016;53.582;10.062;2023-01-29T02:51:10;102515.31;;;5.74;89.20
17785;BME280;9016;53.582;10.062;2023-01-29T02:53:47;102516.97;;;5.85;90.60
17785;BME280;9016;53.582;10.062;2023-01-29T02:56:20;102515.97;;;5.95;89.88
17785;BME280;9016;53.582;10.062;2023-01-29T02:58:52;102509.75;;;5.98;89.41
17785;BME280;9016;53.582;10.062;2023-01-29T03:01:27;102503.47;;;6.05;88.80
17785;BME280;9016;53.582;10.062;2023-01-29T03:04:02;102495.53;;;6.05;88.59
17785;BME280;9016;53.582;10.062;2023-01-29T03:06:34;102496.50;;;6.01;88.66
17785;BME280;9016;53.582;10.062;2023-01-29T03:09:08;102485.19;;;5.90;88.13
17785;BME280;9016;53.582;10.062;2023-01-29T03:11:39;102486.97;;;5.88;88.22
17785;BME280;9016;53.582;10.062;2023-01-29T03:14:11;102480.75;;;5.92;88.88
17785;BME280;9016;53.582;10.062;2023-01-29T03:16:46;102472.88;;;5.86;89.18
17785;BME280;9016;53.582;10.062;2023-01-29T03:19:19;102479.75;;;5.99;88.99
17785;BME280;9016;53.582;10.062;2023-01-29T03:21:49;102471.75;;;6.03;88.71
17785;BME280;9016;53.582;10.062;2023-01-29T03:24:30;102475.31;;;6.03;88.64
17785;BME280;9016;53.582;10.062;2023-01-29T03:27:22;102465.66;;;5.98;88.66
17785;BME280;9016;53.582;10.062;2023-01-29T03:30:13;102458.69;;;5.91;88.56
17785;BME280;9016;53.582;10.062;2023-01-29T03:33:05;102461.31;;;5.93;88.14
17785;BME280;9016;53.582;10.062;2023-01-29T03:35:38;102463.22;;;5.83;88.91
17785;BME280;9016;53.582;10.062;2023-01-29T03:38:08;102463.19;;;5.85;89.39
17785;BME280;9016;53.582;10.062;2023-01-29T03:40:44;102465.81;;;5.88;89.15
17785;BME280;9016;53.582;10.062;2023-01-29T03:43:22;102460.41;;;5.94;88.82
17785;BME280;9016;53.582;10.062;2023-01-29T03:45:58;102459.63;;;5.87;88.82
17785;BME280;9016;53.582;10.062;2023-01-29T03:48:33;102454.28;;;5.90;89.16
17785;BME280;9016;53.582;10.062;2023-01-29T03:51:11;102465.66;;;5.98;89.30
17785;BME280;9016;53.582;10.062;2023-01-29T03:53:47;102466.66;;;5.88;88.52
17785;BME280;9016;53.582;10.062;2023-01-29T03:56:31;102450.72;;;5.93;88.84
17785;BME280;9016;53.582;10.062;2023-01-29T03:59:05;102454.16;;;6.01;89.30
17785;BME280;9016;53.582;10.062;2023-01-29T04:01:43;102454.34;;;5.87;88.74
17785;BME280;9016;53.582;10.062;2023-01-29T04:04:20;102441.25;;;5.74;89.03
17785;BME280;9016;53.582;10.062;2023-01-29T04:06:51;102446.50;;;5.78;89.80
17785;BME280;9016;53.582;10.062;2023-01-29T04:09:27;102442.03;;;5.83;90.20
17785;BME280;9016;53.582;10.062;2023-01-29T04:12:03;102442.94;;;5.81;89.59
17785;BME280;9016;53.582;10.062;2023-01-29T04:14:32;102437.56;;;5.90;89.72
17785;BME280;9016;53.582;10.062;2023-01-29T04:17:07;102442.94;;;5.84;89.80
17785;BME280;9016;53.582;10.062;2023-01-29T04:19:39;102442.84;;;5.88;90.11
17785;BME280;9016;53.582;10.062;2023-01-29T04:22:12;102430.56;;;5.86;90.25
17785;BME280;9016;53.582;10.062;2023-01-29T04:24:41;102433.19;;;5.86;90.13
17785;BME280;9016;53.582;10.062;2023-01-29T04:27:22;102434.97;;;5.85;90.42
17785;BME280;9016;53.582;10.062;2023-01-29T04:30:08;102436.75;;;5.83;90.86
17785;BME280;9016;53.582;10.062;2023-01-29T04:32:53;102427.28;;;5.63;90.86
17785;BME280;9016;53.582;10.062;2023-01-29T04:35:30;102432.47;;;5.72;91.56
17785;BME280;9016;53.582;10.062;2023-01-29T04:38:06;102436.00;;;5.72;91.63
17785;BME280;9016;53.582;10.062;2023-01-29T04:40:45;102434.22;;;5.73;90.89
17785;BME280;9016;53.582;10.062;2023-01-29T04:43:20;102450.09;;;5.73;90.10
17785;BME280;9016;53.582;10.062;2023-01-29T04:46:03;102445.63;;;5.78;90.91
17785;BME280;9016;53.582;10.062;2023-01-29T04:48:42;102448.25;;;5.78;90.49
17785;BME280;9016;53.582;10.062;2023-01-29T04:51:18;102450.88;;;5.79;90.29
17785;BME280;9016;53.582;10.062;2023-01-29T04:53:55;102457.06;;;5.80;90.07
17785;BME280;9016;53.582;10.062;2023-01-29T04:56:28;102456.16;;;5.84;89.88
17785;BME280;9016;53.582;10.062;2023-01-29T04:58:59;102453.53;;;5.79;89.83
17785;BME280;9016;53.582;10.062;2023-01-29T05:01:30;102451.75;;;5.80;90.03
17785;BME280;9016;53.582;10.062;2023-01-29T05:04:01;102451.66;;;5.89;90.31
17785;BME280;9016;53.582;10.062;2023-01-29T05:06:34;102445.50;;;5.90;89.16
17785;BME280;9016;53.582;10.062;2023-01-29T05:09:03;102434.09;;;5.85;89.35
17785;BME280;9016;53.582;10.062;2023-01-29T05:11:32;102437.63;;;5.82;88.48
17785;BME280;9016;53.582;10.062;2023-01-29T05:14:03;102428.94;;;5.73;88.91
17785;BME280;9016;53.582;10.062;2023-01-29T05:16:37;102427.16;;;5.72;89.75
17785;BME280;9016;53.582;10.062;2023-01-29T05:19:08;102428.94;;;5.73;90.01
17785;BME280;9016;53.582;10.062;2023-01-29T05:21:43;102425.47;;;5.66;90.00
17785;BME280;9016;53.582;10.062;2023-01-29T05:24:14;102417.56;;;5.66;90.16
17785;BME280;9016;53.582;10.062;2023-01-29T05:26:43;102423.00;;;5.54;90.19
17785;BME280;9016;53.582;10.062;2023-01-29T05:29:28;102422.00;;;5.63;90.40
17785;BME280;9016;53.582;10.062;2023-01-29T05:31:56;102440.44;;;5.69;90.32
17785;BME280;9016;53.582;10.062;2023-01-29T05:34:24;102432.81;;;5.48;90.56
17785;BME280;9016;53.582;10.062;2023-01-29T05:36:54;102430.03;;;5.55;90.61
17785;BME280;9016;53.582;10.062;2023-01-29T05:39:22;102422.13;;;5.54;89.85
17785;BME280;9016;53.582;10.062;2023-01-29T05:41:50;102411.44;;;5.63;90.70
17785;BME280;9016;53.582;10.062;2023-01-29T05:44:17;102409.75;;;5.57;89.03
17785;BME280;9016;53.582;10.062;2023-01-29T05:46:45;102408.88;;;5.55;88.79
17785;BME280;9016;53.582;10.062;2023-01-29T05:49:15;102416.91;;;5.51;89.48
17785;BME280;9016;53.582;10.062;2023-01-29T05:51:43;102415.88;;;5.61;89.57
17785;BME280;9016;53.582;10.062;2023-01-29T05:54:12;102413.44;;;5.46;89.18
17785;BME280;9016;53.582;10.062;2023-01-29T05:56:40;102422.97;;;5.57;89.57
17785;BME280;9016;53.582;10.062;2023-01-29T05:59:08;102418.50;;;5.64;88.41
17785;BME280;9016;53.582;10.062;2023-01-29T06:01:36;102430.81;;;5.63;88.58
17785;BME280;9016;53.582;10.062;2023-01-29T06:04:04;102432.59;;;5.63;87.71
17785;BME280;9016;53.582;10.062;2023-01-29T06:06:32;102439.78;;;5.52;87.44
17785;BME280;9016;53.582;10.062;2023-01-29T06:09:00;102422.25;;;5.45;87.95
17785;BME280;9016;53.582;10.062;2023-01-29T06:11:29;102425.69;;;5.50;88.32
17785;BME280;9016;53.582;10.062;2023-01-29T06:13:57;102423.00;;;5.56;88.02
17785;BME280;9016;53.582;10.062;2023-01-29T06:16:25;102409.75;;;5.59;87.33
17785;BME280;9016;53.582;10.062;2023-01-29T06:18:53;102394.16;;;5.38;87.77
17785;BME280;9016;53.582;10.062;2023-01-29T06:21:21;102385.53;;;5.24;87.47
17785;BME280;9016;53.582;10.062;2023-01-29T06:23:51;102395.91;;;5.37;87.89
17785;BME280;9016;53.582;10.062;2023-01-29T06:26:19;102390.56;;;5.43;87.95
17785;BME280;9016;53.582;10.062;2023-01-29T06:28:49;102387.84;;;5.46;86.86
17785;BME280;9016;53.582;10.062;2023-01-29T06:31:17;102382.75;;;5.34;87.53
17785;BME280;9016;53.582;10.062;2023-01-29T06:34:03;102385.22;;;5.46;87.68
17785;BME280;9016;53.582;10.062;2023-01-29T06:36:31;102372.09;;;5.39;86.68
17785;BME280;9016;53.582;10.062;2023-01-29T06:38:58;102371.44;;;5.23;86.32
17785;BME280;9016;53.582;10.062;2023-01-29T06:41:26;102355.50;;;5.28;87.53
17785;BME280;9016;53.582;10.062;2023-01-29T06:43:56;102354.56;;;5.32;86.76
17785;BME280;9016;53.582;10.062;2023-01-29T06:46:23;102359.00;;;5.30;86.52
17785;BME280;9016;53.582;10.062;2023-01-29T06:48:51;102366.88;;;5.34;87.30
17785;BME280;9016;53.582;10.062;2023-01-29T06:51:19;102358.06;;;5.34;86.93
17785;BME280;9016;53.582;10.062;2023-01-29T06:53:48;102358.06;;;5.37;86.57
17785;BME280;9016;53.582;10.062;2023-01-29T06:56:16;102350.09;;;5.38;85.96
17785;BME280;9016;53.582;10.062;2023-01-29T06:58:44;102345.63;;;5.42;85.35
17785;BME280;9016;53.582;10.062;2023-01-29T07:01:13;102343.75;;;5.50;86.01
17785;BME280;9016;53.582;10.062;2023-01-29T07:04:00;102352.56;;;5.50;85.28
17785;BME280;9016;53.582;10.062;2023-01-29T07:06:29;102358.72;;;5.51;85.28
17785;BME280;9016;53.582;10.062;2023-01-29T07:08:57;102351.63;;;5.54;84.69
17785;BME280;9016;53.582;10.062;2023-01-29T07:11:25;102347.25;;;5.53;84.81
17785;BME280;9016;53.582;10.062;2023-01-29T07:13:53;102340.91;;;5.63;83.74
17785;BME280;9016;53.582;10.062;2023-01-29T07:16:22;102357.56;;;5.71;83.35
17785;BME280;9016;53.582;10.062;2023-01-29T07:18:52;102362.81;;;5.73;82.63
17785;BME280;9016;53.582;10.062;2023-01-29T07:21:20;102363.63;;;5.78;83.65
17785;BME280;9016;53.582;10.062;2023-01-29T07:23:48;102368.84;;;5.82;82.45
17785;BME280;9016;53.582;10.062;2023-01-29T07:26:16;102353.97;;;5.74;83.63
17785;BME280;9016;53.582;10.062;2023-01-29T07:28:44;102356.44;;;5.89;82.84
17785;BME280;9016;53.582;10.062;2023-01-29T07:31:12;102366.25;;;5.81;82.58
17785;BME280;9016;53.582;10.062;2023-01-29T07:33:43;102356.59;;;5.77;81.97
17785;BME280;9016;53.582;10.062;2023-01-29T07:36:12;102344.34;;;5.71;82.36
17785;BME280;9016;53.582;10.062;2023-01-29T07:38:39;102330.28;;;5.66;82.70
17785;BME280;9016;53.582;10.062;2023-01-29T07:41:09;102324.97;;;5.69;82.00
17785;BME280;9016;53.582;10.062;2023-01-29T07:43:38;102318.09;;;5.56;82.21
17785;BME280;9016;53.582;10.062;2023-01-29T07:46:06;102314.69;;;5.48;82.58
17785;BME280;9016;53.582;10.062;2023-01-29T07:48:34;102310.38;;;5.41;83.20
17785;BME280;9016;53.582;10.062;2023-01-29T07:51:05;102310.38;;;5.43;83.62
17785;BME280;9016;53.582;10.062;2023-01-29T07:53:33;102318.25;;;5.47;82.75
17785;BME280;9016;53.582;10.062;2023-01-29T07:56:01;102327.19;;;5.37;83.30
17785;BME280;9016;53.582;10.062;2023-01-29T07:58:31;102317.66;;;5.27;83.43
17785;BME280;9016;53.582;10.062;2023-01-29T08:01:04;102316.88;;;5.18;83.46
17785;BME280;9016;53.582;10.062;2023-01-29T08:03:33;102330.97;;;5.17;84.73
17785;BME280;9016;53.582;10.062;2023-01-29T08:06:01;102324.72;;;5.25;84.15
17785;BME280;9016;53.582;10.062;2023-01-29T08:08:31;102317.59;;;5.30;83.87
17785;BME280;9016;53.582;10.062;2023-01-29T08:11:00;102312.38;;;5.27;83.68
17785;BME280;9016;53.582;10.062;2023-01-29T08:13:28;102316.84;;;5.21;84.17
17785;BME280;9016;53.582;10.062;2023-01-29T08:15:58;102320.22;;;5.32;83.93
17785;BME280;9016;53.582;10.062;2023-01-29T08:18:27;102315.56;;;5.49;84.36
17785;BME280;9016;53.582;10.062;2023-01-29T08:20:58;102304.19;;;5.45;83.51
17785;BME280;9016;53.582;10.062;2023-01-29T08:23:26;102307.78;;;5.40;83.40
17785;BME280;9016;53.582;10.062;2023-01-29T08:25:56;102317.34;;;5.47;84.03
17785;BME280;9016;53.582;10.062;2023-01-29T08:28:23;102307.59;;;5.53;83.74
17785;BME280;9016;53.582;10.062;2023-01-29T08:30:51;102312.97;;;5.47;83.44
17785;BME280;9016;53.582;10.062;2023-01-29T08:33:20;102312.09;;;5.45;84.62
17785;BME280;9016;53.582;10.062;2023-01-29T08:36:02;102301.53;;;5.45;84.18
17785;BME280;9016;53.582;10.062;2023-01-29T08:38:30;102303.34;;;5.42;84.26
17785;BME280;9016;53.582;10.062;2023-01-29T08:41:00;102304.28;;;5.38;84.96
17785;BME280;9016;53.582;10.062;2023-01-29T08:43:28;102305.25;;;5.31;84.92
17785;BME280;9016;53.582;10.062;2023-01-29T08:45:56;102304.25;;;5.39;85.69
17785;BME280;9016;53.582;10.062;2023-01-29T08:48:24;102305.19;;;5.37;85.57
17785;BME280;9016;53.582;10.062;2023-01-29T08:50:52;102308.56;;;5.48;86.35
17785;BME280;9016;53.582;10.062;2023-01-29T08:53:20;102308.53;;;5.49;85.45
17785;BME280;9016;53.582;10.062;2023-01-29T08:55:51;102303.16;;;5.54;85.14
17785;BME280;9016;53.582;10.062;2023-01-29T08:58:20;102305.75;;;5.58;85.01
17785;BME280;9016;53.582;10.062;2023-01-29T09:00:48;102305.88;;;5.49;85.41
17785;BME280;9016;53.582;10.062;2023-01-29T09:03:31;102308.53;;;5.49;85.91
17785;BME280;9016;53.582;10.062;2023-01-29T09:05:59;102312.03;;;5.51;85.27
17785;BME280;9016;53.582;10.062;2023-01-29T09:08:27;102308.31;;;5.63;86.42
17785;BME280;9016;53.582;10.062;2023-01-29T09:10:57;102312.78;;;5.58;85.42
17785;BME280;9016;53.582;10.062;2023-01-29T09:13:27;102308.28;;;5.66;86.11
17785;BME280;9016;53.582;10.062;2023-01-29T09:15:58;102310.09;;;5.62;86.32
17785;BME280;9016;53.582;10.062;2023-01-29T09:18:27;102300.47;;;5.58;86.03
17785;BME280;9016;53.582;10.062;2023-01-29T09:20:55;102305.72;;;5.60;87.04
17785;BME280;9016;53.582;10.062;2023-01-29T09:23:23;102304.00;;;5.56;87.07
17785;BME280;9016;53.582;10.062;2023-01-29T09:25:51;102300.47;;;5.55;87.29
17785;BME280;9016;53.582;10.062;2023-01-29T09:28:19;102298.78;;;5.53;87.75
17785;BME280;9016;53.582;10.062;2023-01-29T09:30:48;102294.25;;;5.59;88.62
17785;BME280;9016;53.582;10.062;2023-01-29T09:33:16;102289.75;;;5.66;88.51
17785;BME280;9016;53.582;10.062;2023-01-29T09:35:45;102291.31;;;5.79;87.78
17785;BME280;9016;53.582;10.062;2023-01-29T09:38:13;102291.25;;;5.85;87.68
17785;BME280;9016;53.582;10.062;2023-01-29T09:40:48;102288.75;;;5.74;87.33
17785;BME280;9016;53.582;10.062;2023-01-29T09:43:24;102282.84;;;5.59;88.98
17785;BME280;9016;53.582;10.062;2023-01-29T09:45:58;102284.44;;;5.67;89.84
17785;BME280;9016;53.582;10.062;2023-01-29T09:48:29;102284.59;;;5.58;89.14
17785;BME280;9016;53.582;10.062;2023-01-29T09:51:02;102283.47;;;5.73;90.29
17785;BME280;9016;53.582;10.062;2023-01-29T09:53:37;102277.16;;;5.83;89.34
17785;BME280;9016;53.582;10.062;2023-01-29T09:56:11;102263.19;;;5.72;89.94
17785;BME280;9016;53.582;10.062;2023-01-29T09:58:41;102254.28;;;5.77;89.86
17785;BME280;9016;53.582;10.062;2023-01-29T10:01:16;102237.38;;;5.89;90.47
17785;BME280;9016;53.582;10.062;2023-01-29T10:03:59;102233.84;;;5.88;90.33
17785;BME280;9016;53.582;10.062;2023-01-29T10:06:40;102232.38;;;5.71;91.12
17785;BME280;9016;53.582;10.062;2023-01-29T10:09:32;102222.78;;;5.65;92.14
17785;BME280;9016;53.582;10.062;2023-01-29T10:12:15;102222.59;;;5.76;92.12
17785;BME280;9016;53.582;10.062;2023-01-29T10:14:55;102226.22;;;5.70;92.56
17785;BME280;9016;53.582;10.062;2023-01-29T10:17:43;102228.81;;;5.72;91.93
17785;BME280;9016;53.582;10.062;2023-01-29T10:20:37;102217.44;;;5.70;92.03
17785;BME280;9016;53.582;10.062;2023-01-29T10:23:17;102208.81;;;5.56;93.17
17785;BME280;9016;53.582;10.062;2023-01-29T10:25:48;102204.19;;;5.70;92.98
17785;BME280;9016;53.582;10.062;2023-01-29T10:28:19;102203.22;;;5.74;93.24
17785;BME280;9016;53.582;10.062;2023-01-29T10:30:49;102197.91;;;5.77;92.54
17785;BME280;9016;53.582;10.062;2023-01-29T10:33:23;102190.63;;;5.91;92.09
17785;BME280;9016;53.582;10.062;2023-01-29T10:35:54;102197.53;;;5.98;92.03
17785;BME280;9016;53.582;10.062;2023-01-29T10:38:34;102184.13;;;6.09;91.37
17785;BME280;9016;53.582;10.062;2023-01-29T10:41:16;102193.19;;;5.95;91.76
17785;BME280;9016;53.582;10.062;2023-01-29T10:44:00;102187.34;;;5.75;91.39
17785;BME280;9016;53.582;10.062;2023-01-29T10:46:47;102176.63;;;5.86;91.62
17785;BME280;9016;53.582;10.062;2023-01-29T10:49:33;102183.69;;;5.84;91.31
17785;BME280;9016;53.582;10.062;2023-01-29T10:52:22;102178.22;;;5.94;91.31
17785;BME280;9016;53.582;10.062;2023-01-29T10:55:06;102175.97;;;5.70;91.73
17785;BME280;9016;53.582;10.062;2023-01-29T10:57:51;102173.16;;;5.81;92.12
17785;BME280;9016;53.582;10.062;2023-01-29T11:00:26;102167.72;;;5.90;92.50
17785;BME280;9016;53.582;10.062;2023-01-29T11:02:56;102165.03;;;5.91;91.55
17785;BME280;9016;53.582;10.062;2023-01-29T11:05:28;102164.91;;;5.99;90.39
17785;BME280;9016;53.582;10.062;2023-01-29T11:08:02;102155.00;;;6.10;90.63
17785;BME280;9016;53.582;10.062;2023-01-29T11:10:33;102158.16;;;6.29;89.95
17785;BME280;9016;53.582;10.062;2023-01-29T11:13:04;102156.69;;;6.13;89.21
17785;BME280;9016;53.582;10.062;2023-01-29T11:15:32;102154.91;;;6.13;89.73
17785;BME280;9016;53.582;10.062;2023-01-29T11:18:01;102155.84;;;6.11;89.59
17785;BME280;9016;53.582;10.062;2023-01-29T11:20:32;102155.03;;;6.09;89.33
17785;BME280;9016;53.582;10.062;2023-01-29T11:23:00;102156.81;;;6.07;89.34
17785;BME280;9016;53.582;10.062;2023-01-29T11:25:29;102147.09;;;6.09;89.18
17785;BME280;9016;53.582;10.062;2023-01-29T11:27:59;102145.88;;;6.25;89.08
17785;BME280;9016;53.582;10.062;2023-01-29T11:30:30;102139.84;;;6.17;88.37
17785;BME280;9016;53.582;10.062;2023-01-29T11:33:10;102148.00;;;6.06;88.68
17785;BME280;9016;53.582;10.062;2023-01-29T11:35:40;102132.06;;;6.09;89.42
17785;BME280;9016;53.582;10.062;2023-01-29T11:38:17;102129.41;;;6.09;88.04
17785;BME280;9016;53.582;10.062;2023-01-29T11:40:45;102124.00;;;6.15;88.81
17785;BME280;9016;53.582;10.062;2023-01-29T11:43:22;102123.34;;;6.04;87.91
17785;BME280;9016;53.582;10.062;2023-01-29T11:45:59;102130.88;;;6.24;88.57
17785;BME280;9016;53.582;10.062;2023-01-29T11:48:34;102117.72;;;6.21;87.02
17785;BME280;9016;53.582;10.062;2023-01-29T11:51:10;102102.56;;;6.29;87.10
17785;BME280;9016;53.582;10.062;2023-01-29T11:53:40;102109.53;;;6.31;87.95
17785;BME280;9016;53.582;10.062;2023-01-29T11:56:17;102094.44;;;6.38;86.90
17785;BME280;9016;53.582;10.062;2023-01-29T11:58:48;102102.38;;;6.38;85.55
17785;BME280;9016;53.582;10.062;2023-01-29T12:01:29;102084.03;;;6.29;85.99
17785;BME280;9016;53.582;10.062;2023-01-29T12:03:59;102085.97;;;6.21;86.53
17785;BME280;9016;53.582;10.062;2023-01-29T12:06:33;102078.66;;;6.32;86.39
17785;BME280;9016;53.582;10.062;2023-01-29T12:09:08;102074.22;;;6.34;85.86
17785;BME280;9016;53.582;10.062;2023-01-29T12:11:37;102069.81;;;6.33;85.49
17785;BME280;9016;53.582;10.062;2023-01-29T12:14:22;102069.56;;;6.45;85.32
17785;BME280;9016;53.582;10.062;2023-01-29T12:16:54;102058.25;;;6.37;84.82
17785;BME280;9016;53.582;10.062;2023-01-29T12:19:26;102060.19;;;6.30;85.54
17785;BME280;9016;53.582;10.062;2023-01-29T12:22:03;102042.31;;;6.38;85.27
17785;BME280;9016;53.582;10.062;2023-01-29T12:24:35;102059.06;;;6.40;85.64
17785;BME280;9016;53.582;10.062;2023-01-29T12:27:09;102054.75;;;6.36;84.91
17785;BME280;9016;53.582;10.062;2023-01-29T12:29:46;102043.56;;;6.22;85.22
17785;BME280;9016;53.582;10.062;2023-01-29T12:32:25;102030.50;;;6.15;86.02
17785;BME280;9016;53.582;10.062;2023-01-29T12:35:00;102032.63;;;5.99;85.90
17785;BME280;9016;53.582;10.062;2023-01-29T12:37:37;102036.13;;;6.01;86.47
17785;BME280;9016;53.582;10.062;2023-01-29T12:40:12;102026.41;;;6.00;86.78
17785;BME280;9016;53.582;10.062;2023-01-29T12:42:45;102024.50;;;6.08;87.06
17785;BME280;9016;53.582;10.062;2023-01-29T12:45:17;102010.75;;;6.31;86.44
17785;BME280;9016;53.582;10.062;2023-01-29T12:47:48;102020.31;;;6.38;85.47
17785;BME280;9016;53.582;10.062;2023-01-29T12:50:19;102003.53;;;6.37;84.92
17785;BME280;9016;53.582;10.062;2023-01-29T12:52:52;101999.78;;;6.46;85.08
17785;BME280;9016;53.582;10.062;2023-01-29T12:55:25;101992.03;;;6.38;84.46
17785;BME280;9016;53.582;10.062;2023-01-29T12:57:56;101994.34;;;6.15;84.90
17785;BME280;9016;53.582;10.062;2023-01-29T13:00:27;101992.38;;;6.25;84.78
17785;BME280;9016;53.582;10.062;2023-01-29T13:02:59;101969.00;;;6.43;84.42
17785;BME280;9016;53.582;10.062;2023-01-29T13:05:33;101966.41;;;6.40;83.17
17785;BME280;9016;53.582;10.062;2023-01-29T13:08:07;101972.88;;;6.29;83.69
17785;BME280;9016;53.582;10.062;2023-01-29T13:10:36;101967.41;;;6.35;83.19
17785;BME280;9016;53.582;10.062;2023-01-29T13:13:13;101955.72;;;6.45;83.22
17785;BME280;9016;53.582;10.062;2023-01-29T13:15:43;101955.94;;;6.36;82.79
17785;BME280;9016;53.582;10.062;2023-01-29T13:18:35;101957.81;;;6.31;81.93
17785;BME280;9016;53.582;10.062;2023-01-29T13:21:12;101956.63;;;6.42;82.92
17785;BME280;9016;53.582;10.062;2023-01-29T13:23:45;101951.28;;;6.45;82.31
17785;BME280;9016;53.582;10.062;2023-01-29T13:26:16;101946.75;;;6.50;81.17
17785;BME280;9016;53.582;10.062;2023-01-29T13:28:45;101953.06;;;6.45;81.61
17785;BME280;9016;53.582;10.062;2023-01-29T13:31:22;101955.06;;;6.35;81.54